Terminal Aerodrome Forecast
Issued by NWS

Home | Current Version | Previous Version | Text Only | Print | Product List | Glossary On
Versions: 1 2 3 4 5 6 7 8 9 10 11 12 13 14 15 16
000
FTUS43 KDTX 301121
TAFMBS
TAF
KMBS 301121Z 3012/0112 05014G22KT 5SM -RA BR BKN012 OVC022
     FM301300 08015G22KT 4SM -RA BR BKN012 OVC022
     FM301900 06015G22KT 3SM -RA BR OVC008
     FM010100 05011KT 2SM SHRA BR OVC008=

USA.gov is the U.S. government's official web portal to all federal, state and local government web resources and services.